McDavid, Florida
Current Conditions -  °F | °C
As of 9:56 AM on Thursday 18 Dec 2014 (Local Time) from KNSE Reporting Station
Scattered Clouds Scattered Clouds  
Wind Chill: 51°   Ceiling: Unl
Heat Index: 51°   Visibility: 10mi
Dew Point: 40°   Wind: 3mph
Humidity: 66%   Direction: 70°ENE
Pressure: 30.22"   Gusts: NA
Location:  30.87°N, 87.32°W
Report Text: KNSE 181556Z 07003KT 10SM FEW150 SCT250 11/04 A3022 RMK AO2 SLP223 T01060044 $
Loading
Personal Weather Stations






























Interactive Weather Map New forecast layout! Learn more

10-Day Weather Forecast

Advertisements
Track Severe Weather on mobile